Forestdale, Alabama
Current Conditions -  °F | °C
As of 11:53 AM on Friday 28 Nov 2014 (Local Time) from KBHM Reporting Station
Clear Clear  
Wind Chill: 47°   Ceiling: Unl
Heat Index: 47°   Visibility: 10mi
Dew Point: 14°   Wind: 3mph
Humidity: 27%   Direction: NA
Pressure: 30.39"   Gusts: NA
Location:  33.57°N, 86.9°W
Report Text: KBHM 281753Z VRB03KT 10SM CLR 08/M10 A3039 RMK AO2 SLP294 T00831100 10083 21039 58029
Loading
Personal Weather Stations






























Interactive Weather Map New forecast layout! Learn more

10-Day Weather Forecast

Advertisements
Track Severe Weather on mobile